Time;durP1;ratioP1;P1;durP2;ratioP2;P2;SDS_P1;SDS_P2;PMS_P1;PMS_P2;Temp;Humidity;BMP_temperature;BMP_pressure;BME280_temperature;BME280_humidity;BME280_pressure;Samples;Min_cycle;Max_cycle;Signal;HPM_P1;HPM_P2
2022/07/26 00:00:46;;;;;;;12.75;3.20;;;18.10;99.90;;;;;;6186472;23;20080;-90
2022/07/26 00:03:30;;;;;;;13.80;3.30;;;17.60;99.90;;;;;;6189321;23;20028;-91
2022/07/26 00:05:56;;;;;;;14.13;3.60;;;18.00;99.90;;;;;;6206635;23;20009;-91
2022/07/26 00:08:34;;;;;;;17.75;3.50;;;18.40;99.90;;;;;;6211768;23;20049;-91
2022/07/26 00:11:00;;;;;;;12.88;3.42;;;18.50;99.90;;;;;;6201261;23;20021;-91
2022/07/26 00:13:38;;;;;;;14.90;3.55;;;18.00;99.90;;;;;;6194553;23;20024;-91
2022/07/26 00:16:04;;;;;;;15.10;3.42;;;17.90;99.90;;;;;;6186623;23;20021;-91
2022/07/26 00:18:39;;;;;;;18.52;3.63;;;17.90;99.90;;;;;;6160504;23;20021;-92
2022/07/26 00:21:24;;;;;;;18.73;3.63;;;17.90;99.90;;;;;;6161107;23;20108;-90
2022/07/26 00:23:50;;;;;;;14.70;3.58;;;17.70;99.90;;;;;;6172889;23;20027;-91
2022/07/26 00:26:38;;;;;;;14.45;3.50;;;18.60;99.90;;;;;;6202714;23;20426;-92
2022/07/26 00:29:04;;;;;;;13.07;3.40;;;17.80;99.90;;;;;;6156496;23;20099;-91
2022/07/26 00:31:48;;;;;;;15.95;4.00;;;17.80;99.90;;;;;;6102274;23;20053;-92
2022/07/26 00:34:14;;;;;;;17.05;3.97;;;17.80;99.90;;;;;;6101752;23;20324;-90
2022/07/26 00:36:48;;;;;;;15.30;3.40;;;17.80;99.90;;;;;;6128783;23;20057;-92
2022/07/26 00:39:14;;;;;;;12.48;3.47;;;17.80;99.90;;;;;;6129247;23;20029;-89
2022/07/26 00:41:40;;;;;;;14.38;3.67;;;18.20;99.90;;;;;;6102579;23;20022;-91
2022/07/26 00:44:21;;;;;;;14.30;3.53;;;17.80;99.90;;;;;;6129329;23;20020;-92
2022/07/26 00:46:46;;;;;;;14.38;3.50;;;18.60;99.90;;;;;;6103708;23;20018;-91
2022/07/26 00:49:30;;;;;;;15.50;4.20;;;18.00;99.90;;;;;;6103320;23;20101;-92
2022/07/26 00:51:56;;;;;;;12.05;3.67;;;17.60;99.90;;;;;;6130035;23;20053;-91
2022/07/26 00:54:21;;;;;;;13.18;3.42;;;18.50;99.90;;;;;;6104027;23;20324;-91
2022/07/26 00:57:07;;;;;;;15.27;4.03;;;18.50;99.90;;;;;;6135704;23;20029;-90
2022/07/26 00:59:33;;;;;;;15.35;3.42;;;18.20;99.90;;;;;;6104720;23;20488;-92
2022/07/26 01:02:15;;;;;;;16.63;3.90;;;17.90;99.90;;;;;;6103376;23;20026;-91
2022/07/26 01:07:29;;;;;;;17.92;3.97;;;18.40;99.90;;;;;;6108086;23;20026;-91
2022/07/26 01:12:43;;;;;;;15.95;3.85;;;18.50;99.90;;;;;;6134911;23;20108;-92
2022/07/26 01:15:23;;;;;;;14.68;3.90;;;17.40;99.90;;;;;;6133930;23;20024;-90
2022/07/26 01:17:49;;;;;;;13.50;3.92;;;18.50;99.90;;;;;;6132300;23;20021;-92
2022/07/26 01:20:14;;;;;;;15.75;4.00;;;16.50;99.90;;;;;;6160208;23;20032;-93
2022/07/26 01:22:56;;;;;;;15.25;4.10;;;17.80;99.90;;;;;;6134526;23;20021;-90
2022/07/26 01:25:49;;;;;;;13.13;3.78;;;18.20;99.90;;;;;;6161347;23;20073;-91
2022/07/26 01:28:15;;;;;;;14.45;3.88;;;18.40;99.90;;;;;;6135450;23;20017;-91
2022/07/26 01:30:50;;;;;;;;;;;;;;;;;;;;;
2022/07/26 01:33:29;;;;;;;18.75;4.30;;;17.20;99.90;;;;;;6125945;23;20021;-91
2022/07/26 01:36:14;;;;;;;18.63;4.57;;;17.40;99.90;;;;;;6159050;23;20396;-91
2022/07/26 01:41:26;;;;;;;16.85;4.25;;;18.20;99.90;;;;;;6159421;23;20079;-89
2022/07/26 01:43:52;;;;;;;17.88;3.97;;;17.30;99.90;;;;;;6158997;23;20461;-88
2022/07/26 01:46:34;;;;;;;17.17;4.40;;;17.70;99.90;;;;;;6159599;23;20040;-91
2022/07/26 01:49:00;;;;;;;15.80;4.70;;;17.30;99.90;;;;;;6132867;23;20014;-90
2022/07/26 01:51:32;;;;;;;19.00;5.25;;;17.30;99.90;;;;;;6158849;23;20018;-91
2022/07/26 01:53:57;;;;;;;15.88;4.60;;;17.10;99.90;;;;;;6132759;23;20382;-90
2022/07/26 01:56:23;;;;;;;14.35;4.72;;;17.90;99.90;;;;;;6158639;23;20026;-89
2022/07/26 01:59:07;;;;;;;17.80;4.75;;;17.10;99.90;;;;;;6141006;23;20022;-90
2022/07/26 02:01:51;;;;;;;18.48;4.60;;;17.10;99.90;;;;;;6146086;23;20022;-93
2022/07/26 02:07:03;;;;;;;15.38;4.05;;;16.90;99.90;;;;;;6157664;23;20029;-94
2022/07/26 02:09:36;;;;;;;19.33;4.75;;;17.40;99.90;;;;;;6133054;23;20048;-92
2022/07/26 02:12:22;;;;;;;17.77;4.70;;;17.90;99.90;;;;;;6159059;23;20025;-93
2022/07/26 02:14:48;;;;;;;17.48;5.13;;;17.80;99.90;;;;;;6133263;23;20013;-91
2022/07/26 02:17:14;;;;;;;17.17;4.38;;;17.60;99.90;;;;;;6132708;23;20037;-92
2022/07/26 02:20:00;;;;;;;19.25;4.50;;;17.10;99.90;;;;;;6138415;23;20014;-92
2022/07/26 02:22:26;;;;;;;14.35;4.40;;;17.00;99.90;;;;;;6160950;23;20497;-91
2022/07/26 02:24:51;;;;;;;15.20;4.70;;;17.40;99.90;;;;;;6158580;23;20022;-91
2022/07/26 02:27:42;;;;;;;16.83;4.60;;;16.50;99.90;;;;;;6205100;23;20340;-91
2022/07/26 02:30:22;;;;;;;20.13;4.40;;;16.90;99.90;;;;;;6221468;23;20061;-91
2022/07/26 02:32:49;;;;;;;19.00;4.95;;;17.00;99.90;;;;;;6221503;23;20135;-93
2022/07/26 02:35:33;;;;;;;19.27;4.50;;;17.50;99.90;;;;;;6215863;23;20012;-93
2022/07/26 02:38:14;;;;;;;15.05;4.55;;;18.00;99.90;;;;;;6221249;23;20456;-91
2022/07/26 02:40:49;;;;;;;20.75;4.68;;;17.70;99.90;;;;;;6218826;23;20049;-91
2022/07/26 02:43:16;;;;;;;14.98;4.63;;;17.00;99.90;;;;;;6220474;23;20016;-90
2022/07/26 02:45:41;;;;;;;19.63;4.95;;;17.80;99.90;;;;;;6256807;23;20012;-92
2022/07/26 02:48:26;;;;;;;18.05;5.05;;;17.00;99.90;;;;;;6220467;23;20020;-92
2022/07/26 02:50:52;;;;;;;19.48;5.00;;;17.00;99.90;;;;;;6219199;23;20020;-91
2022/07/26 02:53:43;;;;;;;16.42;4.78;;;17.30;99.90;;;;;;6212752;23;20373;-92
2022/07/26 02:56:23;;;;;;;14.82;4.50;;;16.80;99.90;;;;;;6251975;23;20373;-93
2022/07/26 02:58:48;;;;;;;15.00;4.30;;;17.80;99.90;;;;;;6247366;23;20054;-90
2022/07/26 03:01:34;;;;;;;15.57;4.60;;;16.90;99.90;;;;;;6245585;23;20440;-91
2022/07/26 03:04:01;;;;;;;17.17;4.57;;;16.90;99.90;;;;;;6223501;23;20014;-91
2022/07/26 03:06:39;;;;;;;17.02;4.85;;;17.30;99.90;;;;;;6222482;23;20016;-89
2022/07/26 03:09:05;;;;;;;17.40;4.65;;;17.40;99.90;;;;;;6267352;22;20004;-89
2022/07/26 03:11:33;;;;;;;20.05;4.85;;;17.50;99.90;;;;;;6269094;22;20020;-90
2022/07/26 03:14:26;;;;;;;17.77;4.97;;;17.30;99.90;;;;;;6235313;23;20012;-90
2022/07/26 03:17:07;;;;;;;17.92;4.72;;;17.00;99.90;;;;;;6250992;23;20344;-90
2022/07/26 03:19:32;;;;;;;19.50;4.78;;;17.00;99.90;;;;;;6219276;23;20012;-90
2022/07/26 03:22:19;;;;;;;21.67;4.53;;;17.50;99.90;;;;;;6217907;23;20482;-90
2022/07/26 03:24:44;;;;;;;15.70;4.65;;;16.90;99.90;;;;;;6245275;23;20433;-90
2022/07/26 03:27:10;;;;;;;16.95;4.75;;;17.80;99.90;;;;;;6218339;23;20103;-90
2022/07/26 03:29:36;;;;;;;18.83;5.00;;;17.40;99.90;;;;;;6217444;23;20117;-90
2022/07/26 03:32:20;;;;;;;;;;;17.70;99.90;;;;;;6218681;23;20016;-89
2022/07/26 03:34:45;;;;;;;21.08;5.47;;;17.00;99.90;;;;;;6240831;22;19904;-90
2022/07/26 03:37:17;;;;;;;18.02;5.32;;;16.90;99.90;;;;;;6254428;22;20084;-89
2022/07/26 03:40:07;;;;;;;16.95;5.30;;;17.00;99.90;;;;;;6218264;23;20024;-90
2022/07/26 03:42:48;;;;;;;16.00;4.90;;;17.00;99.90;;;;;;6245418;23;20012;-90
2022/07/26 03:45:14;;;;;;;15.88;5.55;;;17.70;99.90;;;;;;6217901;23;20016;-89
2022/07/26 03:47:41;;;;;;;15.07;4.47;;;17.90;99.90;;;;;;6246205;23;20016;-89
2022/07/26 03:50:25;;;;;;;15.48;4.90;;;17.40;99.90;;;;;;6218173;23;20522;-88
2022/07/26 03:52:51;;;;;;;13.43;5.03;;;17.70;99.90;;;;;;6217353;23;20016;-91
2022/07/26 03:58:01;;;;;;;18.83;5.53;;;17.20;99.90;;;;;;6244866;23;20091;-90
2022/07/26 04:00:26;;;;;;;15.88;4.78;;;17.50;99.90;;;;;;6245970;23;20047;-89
2022/07/26 04:02:52;;;;;;;13.48;4.68;;;16.90;99.90;;;;;;6245821;23;20083;-90
2022/07/26 04:05:30;;;;;;;13.63;5.45;;;16.70;99.90;;;;;;6224759;23;20050;-90
2022/07/26 04:07:55;;;;;;;19.92;5.10;;;17.50;99.90;;;;;;6217934;23;20023;-90
2022/07/26 04:10:22;;;;;;;15.73;5.45;;;16.90;99.90;;;;;;6218340;23;20036;-90
2022/07/26 04:13:06;;;;;;;18.33;5.35;;;17.60;99.90;;;;;;6216820;23;20446;-90
2022/07/26 04:15:31;;;;;;;;;;;16.60;99.90;;;;;;6246179;23;20062;-90
2022/07/26 04:17:57;;;;;;;16.45;5.20;;;17.10;99.90;;;;;;6245304;23;19923;-89
2022/07/26 04:20:35;;;;;;;12.88;4.95;;;17.20;99.90;;;;;;6244838;23;20071;-90
2022/07/26 04:23:00;;;;;;;13.95;4.22;;;17.10;99.90;;;;;;6218902;23;20101;-90
2022/07/26 04:25:33;;;;;;;13.95;4.25;;;17.70;99.90;;;;;;6249409;23;20368;-90
2022/07/26 04:27:59;;;;;;;13.90;4.43;;;17.10;99.90;;;;;;6247699;23;20016;-90
2022/07/26 04:30:25;;;;;;;16.77;4.45;;;16.90;99.90;;;;;;6247711;23;20016;-91
2022/07/26 04:33:05;;;;;;;14.32;4.20;;;17.90;99.90;;;;;;6245881;23;20490;-91
2022/07/26 04:35:32;;;;;;;12.65;3.90;;;17.20;99.90;;;;;;6220691;23;20016;-90
2022/07/26 04:37:57;;;;;;;13.45;3.80;;;17.00;99.90;;;;;;6219976;23;20360;-90
2022/07/26 04:40:24;;;;;;;11.52;3.30;;;17.80;99.90;;;;;;6219584;23;20008;-90
2022/07/26 04:43:09;;;;;;;14.38;3.40;;;17.60;99.90;;;;;;6246512;23;20377;-90
2022/07/26 04:45:35;;;;;;;10.70;3.10;;;17.30;99.90;;;;;;6219937;23;20016;-90
2022/07/26 04:48:18;;;;;;;11.18;2.85;;;17.70;99.90;;;;;;6246098;23;20342;-90
2022/07/26 04:50:44;;;;;;;11.90;3.35;;;16.80;99.90;;;;;;6221920;23;20051;-91
2022/07/26 04:53:10;;;;;;;10.95;3.35;;;16.90;99.90;;;;;;6252702;23;20088;-91
2022/07/26 04:55:55;;;;;;;8.05;2.75;;;17.00;99.90;;;;;;6251580;23;20008;-90
2022/07/26 04:58:21;;;;;;;11.52;2.80;;;18.00;99.90;;;;;;6222605;23;20013;-91
2022/07/26 05:00:46;;;;;;;10.77;2.72;;;18.00;99.90;;;;;;6221928;23;20142;-89
2022/07/26 05:03:12;;;;;;;9.05;2.85;;;17.00;99.90;;;;;;6253603;22;20078;-90
2022/07/26 05:05:54;;;;;;;8.02;2.72;;;17.00;99.90;;;;;;6225589;23;20014;-90
2022/07/26 05:08:20;;;;;;;11.35;2.65;;;17.40;99.90;;;;;;6254441;23;20006;-91
2022/07/26 05:11:01;;;;;;;11.15;2.75;;;17.80;99.90;;;;;;6239551;23;20016;-91
2022/07/26 05:13:26;;;;;;;11.00;2.63;;;17.90;99.90;;;;;;6221318;23;20348;-90
2022/07/26 05:16:07;;;;;;;11.45;3.05;;;17.50;99.90;;;;;;6219500;23;20016;-91
2022/07/26 05:18:33;;;;;;;8.75;2.50;;;17.00;99.90;;;;;;6247038;23;20016;-91
2022/07/26 05:20:59;;;;;;;8.40;2.33;;;17.60;99.90;;;;;;6219357;23;20062;-91
2022/07/26 05:23:43;;;;;;;9.07;2.63;;;17.80;99.90;;;;;;6193612;23;20066;-91
2022/07/26 05:26:11;;;;;;;9.30;2.80;;;17.20;99.90;;;;;;6247372;23;20016;-91
2022/07/26 05:28:54;;;;;;;9.70;2.45;;;18.00;99.90;;;;;;6247328;23;20027;-91
2022/07/26 05:31:20;;;;;;;10.55;2.40;;;17.20;99.90;;;;;;6219771;23;20076;-90
2022/07/26 05:33:46;;;;;;;10.75;2.88;;;17.90;99.90;;;;;;6246467;23;20344;-90
2022/07/26 05:36:20;;;;;;;11.77;2.47;;;17.60;99.90;;;;;;6218510;23;20344;-90
2022/07/26 05:38:46;;;;;;;8.40;2.72;;;17.50;99.90;;;;;;6219489;23;20102;-91
2022/07/26 05:41:12;;;;;;;10.27;2.53;;;18.20;99.90;;;;;;6246437;23;20086;-91
2022/07/26 05:43:53;;;;;;;7.93;1.90;;;17.60;99.90;;;;;;6219311;23;20104;-91
2022/07/26 05:46:18;;;;;;;8.55;2.20;;;18.10;99.90;;;;;;6246574;23;20027;-90
2022/07/26 05:48:59;;;;;;;8.98;2.05;;;18.40;99.90;;;;;;6219588;23;20012;-91
2022/07/26 05:51:25;;;;;;;11.63;3.05;;;17.80;99.90;;;;;;6218912;23;20179;-91
2022/07/26 05:53:51;;;;;;;9.00;1.88;;;17.00;99.90;;;;;;6239572;23;20445;-91
2022/07/26 05:56:32;;;;;;;6.88;1.80;;;17.80;99.90;;;;;;6246247;23;20024;-89
2022/07/26 05:58:57;;;;;;;7.88;2.10;;;18.40;99.90;;;;;;6244603;23;20091;-92
2022/07/26 06:01:43;;;;;;;9.68;1.85;;;18.10;99.90;;;;;;6219095;23;20067;-91
2022/07/26 06:04:09;;;;;;;8.13;2.05;;;18.60;99.90;;;;;;6245171;23;20056;-91
2022/07/26 06:06:35;;;;;;;7.57;1.90;;;17.70;99.90;;;;;;6219435;23;20471;-90
2022/07/26 06:09:00;;;;;;;7.93;1.70;;;18.30;99.90;;;;;;6219235;23;20630;-91
2022/07/26 06:11:42;;;;;;;7.03;1.70;;;18.40;99.90;;;;;;6242936;22;20013;-90
2022/07/26 06:14:07;;;;;;;8.27;1.88;;;17.90;99.90;;;;;;6243463;23;20020;-91
2022/07/26 06:16:44;;;;;;;6.95;1.80;;;17.60;99.90;;;;;;6234613;23;20505;-91
2022/07/26 06:19:51;;;;;;;7.97;1.73;;;18.00;99.90;;;;;;6141129;23;20156;-93
2022/07/26 06:22:20;;;;;;;6.22;1.73;;;17.50;99.90;;;;;;6220330;23;20020;-96
2022/07/26 06:24:45;;;;;;;6.07;1.80;;;18.00;99.90;;;;;;6248473;23;20441;-95
2022/07/26 06:27:11;;;;;;;8.50;2.22;;;18.40;99.90;;;;;;6245348;23;20022;-89
2022/07/26 06:29:37;;;;;;;7.45;1.90;;;17.80;99.90;;;;;;6219039;23;20004;-87
2022/07/26 06:32:02;;;;;;;8.18;1.80;;;18.00;99.90;;;;;;6218664;23;20016;-87
2022/07/26 06:34:28;;;;;;;8.00;1.70;;;17.60;99.90;;;;;;6217679;23;20012;-88
2022/07/26 06:36:54;;;;;;;6.72;2.10;;;17.60;99.90;;;;;;6218483;23;20023;-92
2022/07/26 06:39:19;;;;;;;4.78;1.50;;;17.70;99.90;;;;;;6245717;23;20110;-90
2022/07/26 06:41:45;;;;;;;5.68;1.40;;;17.90;99.90;;;;;;6247265;23;20048;-88
2022/07/26 06:44:11;;;;;;;3.80;1.42;;;17.80;99.90;;;;;;6237778;23;20020;-87
2022/07/26 06:46:36;;;;;;;5.55;1.50;;;17.90;99.90;;;;;;6223405;23;20035;-88
2022/07/26 06:49:02;;;;;;;6.45;1.55;;;17.90;99.90;;;;;;6245998;23;20023;-86
2022/07/26 06:51:28;;;;;;;6.10;1.45;;;18.00;99.90;;;;;;6220569;23;20337;-87
2022/07/26 06:53:54;;;;;;;6.00;1.30;;;18.60;99.90;;;;;;6245113;23;20083;-82
2022/07/26 06:56:19;;;;;;;4.25;1.60;;;17.80;99.90;;;;;;6218654;23;20070;-88
2022/07/26 06:58:45;;;;;;;6.40;1.40;;;17.80;99.90;;;;;;6217606;23;20024;-86
2022/07/26 07:01:11;;;;;;;5.53;1.35;;;18.40;99.90;;;;;;6218110;23;20067;-84
2022/07/26 07:03:37;;;;;;;5.35;1.50;;;17.80;99.90;;;;;;6245626;23;20008;-84
2022/07/26 07:06:02;;;;;;;6.20;1.40;;;17.70;99.90;;;;;;6218496;23;20109;-85
2022/07/26 07:08:28;;;;;;;4.78;1.20;;;17.40;99.90;;;;;;6217734;23;20012;-84
2022/07/26 07:10:55;;;;;;;4.07;1.20;;;16.90;99.90;;;;;;6244668;23;20420;-83
2022/07/26 07:13:21;;;;;;;7.10;1.40;;;17.20;99.90;;;;;;6245664;23;20024;-83
2022/07/26 07:15:47;;;;;;;7.07;1.27;;;16.40;99.90;;;;;;6244676;23;20012;-83
2022/07/26 07:18:12;;;;;;;5.47;1.27;;;16.40;99.90;;;;;;6218707;23;20436;-84
2022/07/26 07:20:39;;;;;;;3.72;1.20;;;16.50;99.90;;;;;;6218130;23;20027;-84
2022/07/26 07:23:05;;;;;;;4.55;1.33;;;16.60;99.90;;;;;;6217329;23;20039;-84
2022/07/26 07:25:31;;;;;;;4.70;1.40;;;16.70;99.90;;;;;;6218722;23;20024;-84
2022/07/26 07:27:57;;;;;;;4.25;1.60;;;16.80;99.90;;;;;;6218058;23;20016;-84
2022/07/26 07:30:22;;;;;;;6.97;1.30;;;16.90;99.90;;;;;;6217475;23;20008;-84
2022/07/26 07:32:48;;;;;;;5.68;1.25;;;17.60;99.90;;;;;;6244959;23;20016;-84
2022/07/26 07:35:14;;;;;;;4.55;1.30;;;17.10;99.90;;;;;;6218724;23;20016;-85
2022/07/26 07:37:39;;;;;;;3.63;1.20;;;17.30;99.90;;;;;;6244873;23;20043;-84
2022/07/26 07:40:07;;;;;;;5.65;1.33;;;17.40;99.90;;;;;;6245436;23;20031;-84
2022/07/26 07:42:32;;;;;;;7.50;1.70;;;17.50;99.90;;;;;;6244192;23;20162;-84
2022/07/26 07:44:58;;;;;;;5.32;1.33;;;17.70;99.90;;;;;;6245479;23;20453;-86
2022/07/26 07:47:23;;;;;;;7.93;1.40;;;17.80;99.90;;;;;;6244726;23;20024;-85
2022/07/26 07:49:49;;;;;;;4.85;1.42;;;17.90;99.90;;;;;;6217252;23;20043;-85
2022/07/26 07:52:15;;;;;;;5.32;1.42;;;18.30;99.90;;;;;;6218143;23;20066;-85
2022/07/26 07:54:40;;;;;;;4.65;1.25;;;18.20;99.90;;;;;;6218493;23;20027;-85
2022/07/26 07:57:06;;;;;;;4.93;1.40;;;18.10;99.90;;;;;;6217021;23;20066;-85
2022/07/26 07:59:31;;;;;;;5.97;1.40;;;17.80;99.90;;;;;;6248200;23;20040;-89
2022/07/26 08:02:05;;;;;;;5.68;1.30;;;18.00;99.90;;;;;;6220381;23;20027;-90
2022/07/26 08:04:30;;;;;;;;;;;17.50;99.90;;;;;;6222791;23;20024;-91
2022/07/26 08:06:56;;;;;;;6.05;1.63;;;17.30;99.90;;;;;;6247056;23;19931;-89
2022/07/26 08:09:22;;;;;;;5.82;1.30;;;17.60;99.90;;;;;;6220209;23;20498;-88
2022/07/26 08:11:47;;;;;;;5.25;1.40;;;17.60;99.90;;;;;;6246091;23;20016;-87
2022/07/26 08:14:13;;;;;;;6.07;1.30;;;17.30;99.90;;;;;;6220901;23;20019;-89
2022/07/26 08:16:39;;;;;;;8.73;1.70;;;17.30;99.90;;;;;;6248236;23;20056;-88
2022/07/26 08:19:04;;;;;;;7.55;1.50;;;17.20;99.90;;;;;;6238131;23;20032;-89
2022/07/26 08:21:30;;;;;;;6.68;1.50;;;17.20;99.90;;;;;;6255463;23;20023;-89
2022/07/26 08:23:56;;;;;;;5.55;1.50;;;17.60;99.90;;;;;;6220935;23;20444;-89
2022/07/26 08:26:37;;;;;;;9.02;1.48;;;17.80;99.90;;;;;;6219286;23;20441;-88
2022/07/26 08:29:23;;;;;;;6.47;1.45;;;18.00;99.90;;;;;;6246448;23;20020;-87
2022/07/26 08:31:49;;;;;;;6.78;1.42;;;17.80;99.90;;;;;;6244726;23;20016;-88
2022/07/26 08:34:29;;;;;;;6.95;1.40;;;18.40;99.90;;;;;;6247143;23;20019;-89
2022/07/26 08:36:55;;;;;;;4.93;1.27;;;17.40;99.90;;;;;;6247233;23;20020;-89
2022/07/26 08:39:36;;;;;;;4.78;1.20;;;18.90;99.90;;;;;;6246618;23;20447;-90
2022/07/26 08:42:03;;;;;;;5.70;1.52;;;18.50;99.90;;;;;;6219807;23;20099;-91
2022/07/26 08:44:29;;;;;;;4.63;1.50;;;18.50;99.90;;;;;;6247130;23;20012;-91
2022/07/26 08:47:16;;;;;;;6.93;1.55;;;19.70;99.90;;;;;;6246058;23;20012;-88
2022/07/26 08:49:42;;;;;;;4.97;1.33;;;19.20;99.90;;;;;;6224692;23;20020;-87
2022/07/26 08:52:41;;;;;;;7.22;1.30;;;19.90;99.90;;;;;;6220807;23;20042;-88
2022/07/26 08:55:25;;;;;;;5.38;1.40;;;19.20;99.90;;;;;;6218642;23;20027;-87
2022/07/26 08:57:50;;;;;;;4.55;1.30;;;19.30;99.90;;;;;;6219224;23;20024;-88
2022/07/26 09:00:40;;;;;;;6.28;1.38;;;19.70;99.90;;;;;;6249051;23;20048;-87
2022/07/26 09:03:05;;;;;;;5.43;1.35;;;18.80;99.90;;;;;;6220566;23;20436;-88
2022/07/26 09:05:52;;;;;;;4.82;1.48;;;19.30;99.90;;;;;;6219774;23;20026;-89
2022/07/26 09:08:26;;;;;;;4.72;1.25;;;18.70;99.90;;;;;;6218918;23;20012;-91
2022/07/26 09:11:01;;;;;;;5.85;1.30;;;19.00;99.90;;;;;;6219347;23;20073;-91
2022/07/26 09:13:55;;;;;;;6.07;1.30;;;18.70;99.90;;;;;;6272308;22;20004;-86
2022/07/26 09:16:20;;;;;;;4.65;1.30;;;18.50;99.90;;;;;;6233048;23;20027;-85
2022/07/26 09:19:20;;;;;;;7.28;1.50;;;18.70;99.90;;;;;;6248297;23;20016;-85
2022/07/26 09:21:56;;;;;;;8.77;1.55;;;18.80;99.90;;;;;;6169950;23;20074;-87
2022/07/26 09:27:17;;;;;;;5.68;1.40;;;19.70;99.90;;;;;;6245482;23;20020;-82
2022/07/26 09:30:09;;;;;;;6.95;1.40;;;19.30;99.90;;;;;;6218051;23;20058;-87
2022/07/26 09:32:55;;;;;;;4.07;1.40;;;19.40;99.90;;;;;;6247144;23;20031;-87
2022/07/26 09:35:20;;;;;;;6.82;1.63;;;19.20;99.90;;;;;;6218378;23;20104;-89
2022/07/26 09:38:12;;;;;;;9.77;1.92;;;19.70;99.90;;;;;;6246563;23;20328;-86
2022/07/26 09:40:44;;;;;;;6.60;1.30;;;18.90;99.90;;;;;;6219393;23;20020;-85
2022/07/26 09:43:09;;;;;;;6.32;1.38;;;19.20;99.90;;;;;;6219092;23;20016;-87
2022/07/26 09:45:35;;;;;;;8.43;1.50;;;19.30;99.90;;;;;;6217131;23;20016;-90
2022/07/26 09:48:26;;;;;;;6.35;1.63;;;18.50;99.90;;;;;;6219116;23;20016;-89
2022/07/26 09:51:08;;;;;;;7.35;1.73;;;18.40;99.90;;;;;;6218263;23;20043;-89
2022/07/26 09:53:57;;;;;;;8.85;1.58;;;19.00;99.90;;;;;;6271433;22;20011;-90
2022/07/26 09:56:23;;;;;;;8.25;1.42;;;19.70;99.90;;;;;;6237482;23;20012;-89
2022/07/26 09:59:04;;;;;;;5.60;1.40;;;19.80;99.90;;;;;;6245947;23;20484;-89
2022/07/26 10:01:30;;;;;;;4.95;1.33;;;20.10;99.90;;;;;;6246338;23;20020;-88
2022/07/26 10:04:09;;;;;;;5.22;1.30;;;20.10;99.90;;;;;;6245103;23;20015;-89
2022/07/26 10:06:34;;;;;;;7.47;1.52;;;19.60;99.90;;;;;;6246345;23;20015;-90
2022/07/26 10:09:24;;;;;;;6.80;1.33;;;20.60;99.90;;;;;;6218815;23;20024;-89
2022/07/26 10:11:55;;;;;;;5.28;1.40;;;20.50;99.90;;;;;;6244899;23;20020;-89
2022/07/26 10:14:35;;;;;;;5.55;1.48;;;20.70;99.90;;;;;;6219272;23;20514;-88
2022/07/26 10:17:25;;;;;;;7.43;1.65;;;21.00;99.90;;;;;;6219002;23;20027;-89
2022/07/26 10:19:54;;;;;;;5.43;1.40;;;20.60;99.90;;;;;;6245602;23;20464;-89
2022/07/26 10:22:45;;;;;;;6.70;1.50;;;20.90;99.90;;;;;;6245843;23;20014;-88
2022/07/26 10:25:36;;;;;;;5.82;1.40;;;20.50;99.90;;;;;;6245217;23;20019;-89
2022/07/26 10:28:01;;;;;;;5.18;1.50;;;20.30;99.90;;;;;;6217696;23;20095;-89
2022/07/26 10:30:42;;;;;;;6.30;1.40;;;20.80;99.90;;;;;;6217159;23;20047;-89
2022/07/26 10:33:14;;;;;;;6.15;1.50;;;20.30;99.90;;;;;;6245483;23;20016;-91
2022/07/26 10:35:42;;;;;;;8.02;1.50;;;20.50;99.90;;;;;;6219132;23;20047;-93
2022/07/26 10:38:23;;;;;;;6.22;1.60;;;20.20;99.90;;;;;;6219186;23;20020;-92
2022/07/26 10:41:00;;;;;;;4.30;1.30;;;19.90;99.90;;;;;;6218405;23;20095;-90
2022/07/26 10:43:27;;;;;;;10.05;1.60;;;19.80;99.90;;;;;;6223856;23;20012;-93
2022/07/26 10:46:11;;;;;;;7.10;1.70;;;19.50;99.90;;;;;;6217743;23;20154;-91
2022/07/26 10:48:57;;;;;;;4.95;1.38;;;19.20;99.90;;;;;;6223756;23;20031;-91
2022/07/26 10:51:33;;;;;;;7.97;1.80;;;18.80;99.90;;;;;;6219560;23;20016;-89
2022/07/26 10:54:07;;;;;;;7.22;1.50;;;18.50;99.90;;;;;;6217589;23;20020;-88
2022/07/26 10:56:33;;;;;;;8.35;1.60;;;18.20;99.90;;;;;;6220630;23;20023;-90
2022/07/26 10:58:59;;;;;;;6.63;1.70;;;18.10;99.90;;;;;;6222844;23;20102;-89
2022/07/26 11:01:39;;;;;;;6.43;1.70;;;18.00;99.90;;;;;;6217986;23;20468;-91
2022/07/26 11:04:16;;;;;;;9.15;1.80;;;18.00;99.90;;;;;;6245588;23;20376;-88
2022/07/26 11:06:41;;;;;;;8.88;1.75;;;18.00;99.90;;;;;;6244783;23;20332;-90
2022/07/26 11:09:11;;;;;;;7.38;1.70;;;18.10;99.90;;;;;;6218376;23;20028;-90
2022/07/26 11:11:37;;;;;;;7.72;1.88;;;18.20;99.90;;;;;;6218336;23;20016;-91
2022/07/26 11:14:08;;;;;;;9.73;1.77;;;18.50;99.90;;;;;;6217785;23;20095;-91
2022/07/26 11:16:38;;;;;;;9.80;2.08;;;18.50;99.90;;;;;;6244458;23;20012;-87
2022/07/26 11:19:17;;;;;;;8.52;1.80;;;18.70;99.90;;;;;;6216829;23;20091;-88
2022/07/26 11:21:44;;;;;;;9.65;2.13;;;19.00;99.90;;;;;;6217488;23;20020;-91
2022/07/26 11:24:10;;;;;;;8.35;2.08;;;19.40;99.90;;;;;;6219263;23;20023;-89
2022/07/26 11:26:45;;;;;;;9.35;1.73;;;19.70;99.90;;;;;;6226828;23;20047;-89
2022/07/26 11:29:12;;;;;;;10.20;2.25;;;19.80;99.90;;;;;;6255347;23;20349;-90
2022/07/26 11:31:43;;;;;;;9.57;2.03;;;20.00;99.90;;;;;;6246780;23;20138;-90
2022/07/26 11:34:17;;;;;;;11.38;2.13;;;19.70;99.90;;;;;;6218636;23;20091;-94
2022/07/26 11:36:44;;;;;;;10.68;2.05;;;19.60;99.90;;;;;;6217218;23;20020;-89
2022/07/26 11:39:19;;;;;;;11.20;2.33;;;19.50;99.90;;;;;;6218793;23;20015;-90
2022/07/26 11:41:44;;;;;;;10.35;2.10;;;19.10;99.90;;;;;;6217079;23;20094;-88
2022/07/26 11:44:15;;;;;;;11.00;2.40;;;19.10;99.90;;;;;;6218379;23;20024;-88
2022/07/26 11:46:46;;;;;;;11.52;2.53;;;18.60;99.90;;;;;;6218424;23;20019;-89
2022/07/26 11:49:25;;;;;;;11.77;2.88;;;18.50;99.90;;;;;;6244839;23;20372;-88
2022/07/26 11:51:55;;;;;;;8.90;2.08;;;18.40;99.90;;;;;;6245248;23;20020;-90
2022/07/26 11:54:23;;;;;;;9.50;2.30;;;18.50;99.90;;;;;;6218254;23;20066;-90
2022/07/26 11:57:15;;;;;;;8.82;2.20;;;18.60;99.90;;;;;;6217138;23;20403;-89
2022/07/26 11:59:42;;;;;;;12.30;2.55;;;18.60;99.90;;;;;;6245580;23;20024;-90
2022/07/26 12:02:23;;;;;;;11.82;2.42;;;18.70;99.90;;;;;;6247469;23;20020;-91
2022/07/26 12:05:37;;;;;;;11.60;2.83;;;19.00;99.90;;;;;;6217269;23;20099;-89
2022/07/26 12:08:09;;;;;;;9.18;2.13;;;19.70;99.90;;;;;;6218021;23;20038;-91
2022/07/26 12:11:08;;;;;;;11.03;2.10;;;19.90;99.90;;;;;;6217649;23;20016;-91
2022/07/26 12:14:02;;;;;;;15.27;2.58;;;19.60;99.90;;;;;;6224692;22;20064;-90
2022/07/26 12:16:46;;;;;;;12.50;2.75;;;19.70;99.90;;;;;;6247035;22;20004;-90
2022/07/26 12:19:23;;;;;;;9.25;2.13;;;19.80;99.90;;;;;;6229606;23;20051;-91
2022/07/26 12:22:24;;;;;;;9.10;2.22;;;19.70;99.90;;;;;;6251751;23;20020;-90
2022/07/26 12:24:57;;;;;;;11.48;2.40;;;19.50;99.90;;;;;;6220202;23;20016;-90
2022/07/26 12:27:30;;;;;;;9.77;2.40;;;19.50;99.90;;;;;;6218736;23;20158;-91
2022/07/26 12:30:18;;;;;;;9.27;2.30;;;19.40;99.90;;;;;;6218028;23;20062;-91
2022/07/26 12:33:00;;;;;;;11.90;2.17;;;19.50;99.90;;;;;;6216997;23;20348;-91
2022/07/26 12:35:35;;;;;;;11.13;2.20;;;20.40;99.90;;;;;;6219140;23;20514;-90
2022/07/26 12:38:46;;;;;;;11.90;2.30;;;19.80;99.90;;;;;;6243935;23;20456;-90
2022/07/26 12:41:32;;;;;;;10.15;2.10;;;19.70;99.90;;;;;;6218504;23;20039;-90
2022/07/26 12:44:16;;;;;;;10.60;2.25;;;20.60;99.90;;;;;;6245165;23;20016;-91
2022/07/26 12:47:01;;;;;;;8.85;2.00;;;20.00;99.90;;;;;;6250082;23;20020;-91
2022/07/26 12:49:26;;;;;;;8.35;1.95;;;20.60;99.90;;;;;;6247631;23;20019;-88
2022/07/26 12:52:12;;;;;;;9.00;1.80;;;20.10;99.90;;;;;;6219937;23;20020;-90
2022/07/26 12:54:51;;;;;;;11.15;1.75;;;19.90;99.90;;;;;;6220683;23;20012;-91
2022/07/26 12:57:26;;;;;;;10.07;1.90;;;19.80;99.90;;;;;;6247774;23;20336;-90
2022/07/26 12:59:58;;;;;;;9.75;1.75;;;20.50;99.90;;;;;;6220244;23;20441;-91
2022/07/26 13:02:30;;;;;;;9.35;1.70;;;19.90;99.90;;;;;;6245058;23;20027;-90
2022/07/26 13:05:00;;;;;;;8.27;1.80;;;20.70;99.90;;;;;;6251076;23;20019;-91
2022/07/26 13:07:44;;;;;;;9.32;1.85;;;19.80;99.90;;;;;;6218978;23;20028;-90
2022/07/26 13:10:13;;;;;;;9.40;1.80;;;19.20;99.90;;;;;;6220738;23;20012;-95
2022/07/26 13:12:42;;;;;;;8.90;1.88;;;20.30;99.90;;;;;;6219913;23;20073;-96
2022/07/26 13:15:14;;;;;;;6.38;1.63;;;19.40;99.90;;;;;;6246598;23;20016;-94
2022/07/26 13:17:40;;;;;;;8.00;1.40;;;19.50;99.90;;;;;;6225999;23;20027;-90
2022/07/26 13:20:09;;;;;;;7.80;1.65;;;19.60;99.90;;;;;;6226288;23;20012;-92
2022/07/26 13:22:37;;;;;;;8.20;2.03;;;19.90;99.90;;;;;;6248710;23;20368;-94
2022/07/26 13:25:03;;;;;;;7.38;1.45;;;20.20;99.90;;;;;;6247181;23;20078;-90
2022/07/26 13:27:29;;;;;;;6.50;1.63;;;20.20;99.90;;;;;;6245553;23;20385;-90
2022/07/26 13:30:13;;;;;;;8.00;2.60;;;21.00;99.90;;;;;;6219391;23;20022;-89